Time;durP1;ratioP1;P1;durP2;ratioP2;P2;SDS_P1;SDS_P2;PMS_P1;PMS_P2;Temp;Humidity;BMP_temperature;BMP_pressure;BME280_temperature;BME280_humidity;BME280_pressure;Samples;Min_cycle;Max_cycle;Signal;HPM_P1;HPM_P2
2023/01/24 00:00:03;;;;;;;;;;;;;;;1.33;100.00;101894.16;5040687;28;19928;-62
2023/01/24 00:02:29;;;;;;;;;;;;;;;1.32;100.00;101899.22;5011692;28;19925;-60
2023/01/24 00:04:54;;;;;;;;;;;;;;;1.35;100.00;101882.31;5052486;28;19946;-60
2023/01/24 00:07:19;;;;;;;;;;;;;;;1.23;100.00;101888.09;5051630;28;19967;-60
2023/01/24 00:09:44;;;;;;;;;;;;;;;1.23;100.00;101892.34;5052401;28;19917;-60
2023/01/24 00:12:09;;;;;;;;;;;;;;;1.24;100.00;101888.94;5056437;28;19967;-60
2023/01/24 00:14:34;;;;;;;;;;;;;;;1.25;100.00;101889.00;5052461;28;20558;-60
2023/01/24 00:17:00;;;;;;;;;;;;;;;1.20;100.00;101893.13;5055756;28;19925;-60
2023/01/24 00:19:25;;;;;;;;;;;;;;;1.17;100.00;101882.13;5052664;28;20283;-60
2023/01/24 00:21:50;;;;;;;;;;;;;;;1.17;100.00;101882.97;5054902;28;19932;-63
2023/01/24 00:24:15;;;;;;;;;;;;;;;1.13;100.00;101886.28;5053722;28;19921;-60
2023/01/24 00:26:40;;;;;;;;;;;;;;;1.19;100.00;101891.44;5050010;28;19931;-60
2023/01/24 00:29:05;;;;;;;;;;;;;;;1.12;100.00;101880.34;5052103;28;19920;-61
2023/01/24 00:31:31;;;;;;;;;;;;;;;1.11;100.00;101878.66;5052368;28;20368;-61
2023/01/24 00:33:56;;;;;;;;;;;;;;;1.08;100.00;101885.34;5055894;28;19956;-61
2023/01/24 00:36:21;;;;;;;;;;;;;;;1.05;100.00;101883.63;5051311;28;19917;-61
2023/01/24 00:38:46;;;;;;;;;;;;;;;1.03;100.00;101885.31;5043174;28;19966;-60
2023/01/24 00:41:11;;;;;;;;;;;;;;;1.03;100.00;101884.44;5045043;28;20003;-60
2023/01/24 00:43:37;;;;;;;;;;;;;;;0.97;100.00;101882.69;5058401;28;20368;-60
2023/01/24 00:46:04;;;;;;;;;;;;;;;1.03;100.00;101882.78;5049847;28;19924;-60
2023/01/24 00:48:29;;;;;;;;;;;;;;;0.93;100.00;101884.34;5051796;28;19972;-60
2023/01/24 00:50:55;;;;;;;;;;;;;;;0.95;100.00;101887.72;5047102;28;19970;-60
2023/01/24 00:53:20;;;;;;;;;;;;;;;1.02;100.00;101886.13;5060357;28;20353;-60
2023/01/24 00:55:46;;;;;;;;;;;;;;;1.02;100.00;101896.28;5050341;28;19920;-60
2023/01/24 00:58:12;;;;;;;;;;;;;;;1.07;100.00;101886.22;5046175;28;19921;-61
2023/01/24 01:00:38;;;;;;;;;;;;;;;1.11;100.00;101890.47;5036075;28;19921;-60
2023/01/24 01:03:04;;;;;;;;;;;;;;;1.20;100.00;101887.22;5050145;28;19917;-60
2023/01/24 01:05:29;;;;;;;;;;;;;;;1.25;100.00;101898.25;5051231;28;19926;-60
2023/01/24 01:07:54;;;;;;;;;;;;;;;1.17;100.00;101894.78;5050622;28;19917;-60
2023/01/24 01:10:19;;;;;;;;;;;;;;;1.25;100.00;101893.19;5043123;28;19970;-60
2023/01/24 01:12:44;;;;;;;;;;;;;;;1.26;100.00;101893.19;5064311;28;20007;-60
2023/01/24 01:15:10;;;;;;;;;;;;;;;1.22;100.00;101886.41;5050877;28;19921;-60
2023/01/24 01:17:35;;;;;;;;;;;;;;;1.14;100.00;101890.50;5038741;28;19921;-60
2023/01/24 01:20:00;;;;;;;;;;;;;;;1.22;100.00;101888.09;5051297;28;19921;-60
2023/01/24 01:22:26;;;;;;;;;;;;;;;1.26;100.00;101894.91;5056132;28;19952;-61
2023/01/24 01:24:51;;;;;;;;;;;;;;;1.36;100.00;101895.88;5051558;28;19967;-61
2023/01/24 01:27:16;;;;;;;;;;;;;;;1.33;100.00;101900.88;5046387;28;19929;-61
2023/01/24 01:29:41;;;;;;;;;;;;;;;1.27;100.00;101902.50;5045580;28;19916;-61
2023/01/24 01:32:06;;;;;;;;;;;;;;;1.33;100.00;101894.16;5055087;28;19921;-61
2023/01/24 01:34:32;;;;;;;;;;;;;;;1.27;100.00;101905.06;5051603;28;19940;-60
2023/01/24 01:36:57;;;;;;;;;;;;;;;1.25;100.00;101900.78;5045739;28;19959;-61
2023/01/24 01:39:22;;;;;;;;;;;;;;;1.28;100.00;101903.38;5034901;28;19964;-60
2023/01/24 01:41:47;;;;;;;;;;;;;;;1.22;100.00;101895.69;5052867;28;20410;-60
2023/01/24 01:44:38;;;;;;;;;;;;;;;1.29;100.00;101903.41;5052902;28;20015;-60
2023/01/24 01:47:18;;;;;;;;;;;;;;;1.15;100.00;101898.97;5045984;28;20333;-60
2023/01/24 01:50:03;;;;;;;;;;;;;;;1.09;100.00;101890.47;5050221;28;19974;-60
2023/01/24 01:52:31;;;;;;;;;;;;;;;1.09;100.00;101898.06;5023517;28;19928;-60
2023/01/24 01:54:59;;;;;;;;;;;;;;;1.11;100.00;101900.63;5051267;28;19924;-61
2023/01/24 01:57:28;;;;;;;;;;;;;;;1.09;100.00;101895.53;5049156;28;19916;-60
2023/01/24 01:59:57;;;;;;;;;;;;;;;1.15;100.00;101899.81;5034807;28;19917;-61
2023/01/24 02:02:22;;;;;;;;;;;;;;;1.12;100.00;101900.63;5035680;28;19943;-60
2023/01/24 02:04:49;;;;;;;;;;;;;;;1.11;100.00;101901.47;5051237;28;19963;-60
2023/01/24 02:07:23;;;;;;;;;;;;;;;1.18;100.00;101904.94;5050390;28;19917;-60
2023/01/24 02:09:50;;;;;;;;;;;;;;;1.11;100.00;101911.59;5045834;28;19921;-60
2023/01/24 02:12:18;;;;;;;;;;;;;;;1.05;100.00;101908.13;5036219;28;19921;-60
2023/01/24 02:17:30;;;;;;;;;;;;;;;0.88;100.00;101915.50;5054365;28;19924;-60
2023/01/24 02:20:13;;;;;;;;;;;;;;;0.89;100.00;101917.19;5054252;28;19916;-60
2023/01/24 02:22:53;;;;;;;;;;;;;;;0.92;100.00;101919.78;5042887;28;20003;-60
2023/01/24 02:25:18;;;;;;;;;;;;;;;0.96;100.00;101926.59;5054524;28;19921;-60
2023/01/24 02:27:44;;;;;;;;;;;;;;;0.87;100.00;101926.44;5054074;28;19916;-60
2023/01/24 02:30:09;;;;;;;;;;;;;;;0.93;100.00;101929.06;5044689;28;19920;-60
2023/01/24 02:32:34;;;;;;;;;;;;;;;0.98;100.00;101927.50;5067953;28;19974;-60
2023/01/24 02:34:59;;;;;;;;;;;;;;;0.96;100.00;101924.06;5053971;28;19948;-60
2023/01/24 02:37:25;;;;;;;;;;;;;;;0.88;100.00;101921.44;5053633;28;19963;-60
2023/01/24 02:39:53;;;;;;;;;;;;;;;0.80;100.00;101918.75;5053877;28;19990;-60
2023/01/24 02:42:22;;;;;;;;;;;;;;;0.85;100.00;101918.00;5041415;28;19948;-60
2023/01/24 02:44:57;;;;;;;;;;;;;;;0.79;100.00;101922.13;5048371;28;20261;-60
2023/01/24 02:47:22;;;;;;;;;;;;;;;0.86;100.00;101925.59;5045699;28;19967;-61
2023/01/24 02:49:47;;;;;;;;;;;;;;;0.81;100.00;101927.22;5053723;28;19917;-60
2023/01/24 02:54:56;;;;;;;;;;;;;;;0.82;100.00;101928.94;5053931;28;19931;-60
2023/01/24 03:00:06;;;;;;;;;;;;;;;0.79;100.00;101927.22;5034080;28;19939;-60
2023/01/24 03:02:31;;;;;;;;;;;;;;;0.75;100.00;101922.06;5051882;28;20372;-61
2023/01/24 03:04:56;;;;;;;;;;;;;;;0.77;100.00;101935.59;5053658;28;20018;-60
2023/01/24 03:07:21;;;;;;;;;;;;;;;0.80;100.00;101928.88;5052903;28;19917;-60
2023/01/24 03:09:47;;;;;;;;;;;;;;;0.82;100.00;101933.13;5053609;28;19924;-60
2023/01/24 03:36:51;;;;;;;;;;;;;;;0.66;100.00;101940.50;5052417;28;19927;-60
2023/01/24 03:42:00;;;;;;;;;;;;;;;0.64;100.00;101952.28;5037886;28;20288;-59
2023/01/24 03:44:25;;;;;;;;;;;;;;;0.57;100.00;101948.81;5052802;28;19920;-60
2023/01/24 03:46:50;;;;;;;;;;;;;;;0.65;100.00;101946.38;5040214;28;19963;-60
2023/01/24 03:49:16;;;;;;;;;;;;;;;0.63;100.00;101948.03;5051543;28;20023;-60
2023/01/24 03:54:26;;;;;;;;;;;;;;;0.63;100.00;101953.97;5052736;28;20065;-60
2023/01/24 03:56:51;;;;;;;;;;;;;;;0.78;100.00;101950.84;5052539;28;20406;-59
2023/01/24 03:59:16;;;;;;;;;;;;;;;0.67;100.00;101951.47;5038748;28;19920;-61
2023/01/24 04:01:41;;;;;;;;;;;;;;;0.64;100.00;101962.41;5031440;28;19943;-61
2023/01/24 04:04:07;;;;;;;;;;;;;;;0.58;100.00;101958.13;5048502;28;19917;-60
2023/01/24 04:06:32;;;;;;;;;;;;;;;0.57;100.00;101958.06;5042116;28;19917;-60
2023/01/24 04:08:57;;;;;;;;;;;;;;;0.59;100.00;101954.72;5051757;28;19963;-60
2023/01/24 04:11:22;;;;;;;;;;;;;;;0.61;100.00;101958.16;5052065;28;19920;-60
2023/01/24 04:13:48;;;;;;;;;;;;;;;0.63;100.00;101958.16;5056597;28;20121;-60
2023/01/24 04:16:14;;;;;;;;;;;;;;;0.60;100.00;101953.91;5041075;28;20328;-59
2023/01/24 04:18:40;;;;;;;;;;;;;;;0.67;100.00;101959.06;5051844;28;19921;-59
2023/01/24 04:21:05;;;;;;;;;;;;;;;0.61;100.00;101957.31;5050240;28;19920;-59
2023/01/24 04:23:30;;;;;;;;;;;;;;;0.57;100.00;101961.47;5058779;28;19952;-60
2023/01/24 04:25:57;;;;;;;;;;;;;;;0.68;100.00;101965.84;5051662;28;19927;-60
2023/01/24 04:28:23;;;;;;;;;;;;;;;0.66;100.00;101957.38;5051769;28;19917;-60
2023/01/24 04:30:48;;;;;;;;;;;;;;;0.63;100.00;101951.44;5047844;28;19971;-60
2023/01/24 04:33:13;;;;;;;;;;;;;;;0.68;100.00;101948.13;5061341;28;19916;-60
2023/01/24 04:35:39;;;;;;;;;;;;;;;0.66;100.00;101950.63;5051930;28;19967;-59
2023/01/24 04:38:04;;;;;;;;;;;;;;;0.68;100.00;101956.56;5051097;28;19925;-59
2023/01/24 04:40:29;;;;;;;;;;;;;;;0.68;100.00;101953.19;5041352;28;19921;-60
2023/01/24 04:42:56;;;;;;;;;;;;;;;0.66;100.00;101955.69;5046129;28;19917;-60
2023/01/24 04:45:21;;;;;;;;;;;;;;;0.67;100.00;101962.47;5047281;28;19996;-60
2023/01/24 04:47:46;;;;;;;;;;;;;;;0.68;100.00;101960.78;5047481;28;20016;-59
2023/01/24 04:50:11;;;;;;;;;;;;;;;0.69;100.00;101960.81;5042639;28;19969;-60
2023/01/24 04:52:37;;;;;;;;;;;;;;;0.65;100.00;101959.06;5050451;28;19964;-60
2023/01/24 04:55:02;;;;;;;;;;;;;;;0.64;100.00;101960.75;5052124;28;19917;-60
2023/01/24 04:57:27;;;;;;;;;;;;;;;0.72;100.00;101960.00;5047840;28;20336;-60
2023/01/24 04:59:53;;;;;;;;;;;;;;;0.66;100.00;101955.69;5040116;28;20391;-60
2023/01/24 05:02:18;;;;;;;;;;;;;;;0.74;100.00;101965.94;5056735;28;19924;-59
2023/01/24 05:04:43;;;;;;;;;;;;;;;0.79;100.00;101954.22;5052033;28;20324;-59
2023/01/24 05:07:09;;;;;;;;;;;;;;;0.78;100.00;101960.09;5050723;28;19921;-60
2023/01/24 05:09:34;;;;;;;;;;;;;;;0.79;100.00;101951.66;5051309;28;19931;-59
2023/01/24 05:11:59;;;;;;;;;;;;;;;0.86;100.00;101958.53;5055380;28;20003;-59
2023/01/24 05:14:24;;;;;;;;;;;;;;;0.86;100.00;101968.69;5052090;28;19917;-60
2023/01/24 05:16:49;;;;;;;;;;;;;;;0.77;100.00;101966.84;5050849;28;19917;-60
2023/01/24 05:19:15;;;;;;;;;;;;;;;0.76;100.00;101966.84;5051549;28;19924;-59
2023/01/24 05:21:40;;;;;;;;;;;;;;;0.75;100.00;101962.59;5053415;28;20435;-59
2023/01/24 05:24:05;;;;;;;;;;;;;;;0.77;100.00;101953.31;5053942;28;19924;-60
2023/01/24 05:26:30;;;;;;;;;;;;;;;0.75;100.00;101965.13;5050737;28;20003;-60
2023/01/24 05:28:56;;;;;;;;;;;;;;;0.77;100.00;101969.38;5051866;28;20399;-60
2023/01/24 05:31:21;;;;;;;;;;;;;;;0.75;100.00;101965.13;5050840;28;19963;-60
2023/01/24 05:33:47;;;;;;;;;;;;;;;0.73;100.00;101962.56;5056719;28;20015;-61
2023/01/24 05:36:13;;;;;;;;;;;;;;;0.77;100.00;101961.78;5050437;28;19923;-61
2023/01/24 05:38:38;;;;;;;;;;;;;;;0.85;100.00;101964.44;5051604;28;20368;-61
2023/01/24 05:41:05;;;;;;;;;;;;;;;0.83;100.00;101962.72;5040456;28;19927;-60
2023/01/24 05:43:30;;;;;;;;;;;;;;;0.80;100.00;101969.41;5037869;28;19959;-61
2023/01/24 05:45:57;;;;;;;;;;;;;;;0.82;100.00;101968.59;5050489;28;19917;-60
2023/01/24 05:48:22;;;;;;;;;;;;;;;0.86;100.00;101971.22;5054744;28;19920;-60
2023/01/24 05:50:47;;;;;;;;;;;;;;;0.87;100.00;101972.94;5042944;28;20337;-61
2023/01/24 05:53:13;;;;;;;;;;;;;;;0.96;100.00;101965.44;5054132;28;19917;-60
2023/01/24 05:55:38;;;;;;;;;;;;;;;0.99;100.00;101974.78;5055219;28;20430;-60
2023/01/24 05:58:03;;;;;;;;;;;;;;;0.94;100.00;101974.72;5068850;28;20367;-61
2023/01/24 06:00:28;;;;;;;;;;;;;;;0.93;100.00;101974.69;5048214;28;19927;-62
2023/01/24 06:02:54;;;;;;;;;;;;;;;0.91;100.00;101972.13;5066668;28;19917;-60
2023/01/24 06:05:19;;;;;;;;;;;;;;;0.92;100.00;101978.06;5050044;28;19921;-64
2023/01/24 06:07:45;;;;;;;;;;;;;;;0.90;100.00;101975.50;5053998;28;19916;-60
2023/01/24 06:10:10;;;;;;;;;;;;;;;0.86;100.00;101977.97;5045139;28;20315;-63
2023/01/24 06:12:35;;;;;;;;;;;;;;;0.82;100.00;101979.59;5052708;28;19967;-60
2023/01/24 06:15:00;;;;;;;;;;;;;;;0.84;100.00;101983.00;5053485;28;19935;-60
2023/01/24 06:17:25;;;;;;;;;;;;;;;0.90;100.00;101984.78;5054271;28;19945;-60
2023/01/24 06:19:51;;;;;;;;;;;;;;;0.96;100.00;101983.19;5054403;28;19923;-60
2023/01/24 06:22:28;;;;;;;;;;;;;;;1.09;100.00;101988.44;5059023;28;19925;-60
2023/01/24 06:24:54;;;;;;;;;;;;;;;0.99;100.00;101991.69;5054542;28;19913;-60
2023/01/24 06:27:19;;;;;;;;;;;;;;;0.97;100.00;101991.66;5049530;28;20331;-60
2023/01/24 06:29:44;;;;;;;;;;;;;;;1.06;100.00;101999.41;5047386;28;20013;-60
2023/01/24 06:32:22;;;;;;;;;;;;;;;1.04;100.00;102006.16;5059267;28;19921;-60
2023/01/24 06:34:53;;;;;;;;;;;;;;;1.07;100.00;102012.94;5054113;28;19960;-61
2023/01/24 06:37:18;;;;;;;;;;;;;;;1.03;100.00;102021.31;5054042;28;20062;-60
2023/01/24 06:39:49;;;;;;;;;;;;;;;1.04;100.00;102013.75;5054449;28;19921;-63
2023/01/24 06:42:14;;;;;;;;;;;;;;;0.99;100.00;102022.09;5017060;28;19921;-60
2023/01/24 06:44:40;;;;;;;;;;;;;;;1.00;100.00;102024.63;5046594;28;19987;-60
2023/01/24 06:47:07;;;;;;;;;;;;;;;1.02;100.00;102022.13;5043927;28;20331;-60
2023/01/24 06:49:33;;;;;;;;;;;;;;;1.06;100.00;102026.44;5049063;28;19921;-60
2023/01/24 06:51:58;;;;;;;;;;;;;;;1.08;100.00;102028.16;5049339;28;20403;-61
2023/01/24 06:54:23;;;;;;;;;;;;;;;1.10;100.00;102036.66;5052455;28;19916;-61
2023/01/24 06:56:48;;;;;;;;;;;;;;;1.18;100.00;102035.91;5048877;28;19941;-61
2023/01/24 06:59:13;;;;;;;;;;;;;;;1.14;100.00;102035.00;5050525;28;19991;-60
2023/01/24 07:01:38;;;;;;;;;;;;;;;1.10;100.00;102038.31;5055538;28;19931;-60
2023/01/24 07:04:04;;;;;;;;;;;;;;;1.09;100.00;102044.22;5052052;28;20403;-60
2023/01/24 07:06:29;;;;;;;;;;;;;;;1.08;100.00;102043.38;5053161;28;20070;-60
2023/01/24 07:08:54;;;;;;;;;;;;;;;1.02;100.00;102033.13;5038975;28;19917;-61
2023/01/24 07:11:19;;;;;;;;;;;;;;;1.04;100.00;102044.16;5053283;28;19927;-60
2023/01/24 07:13:44;;;;;;;;;;;;;;;1.01;100.00;102045.78;5056626;28;19960;-61
2023/01/24 07:16:09;;;;;;;;;;;;;;;0.98;100.00;102046.59;5041721;28;19921;-61
2023/01/24 07:18:35;;;;;;;;;;;;;;;1.00;100.00;102049.97;5053313;28;19917;-61
2023/01/24 07:21:04;;;;;;;;;;;;;;;1.04;100.00;102045.81;5050932;28;19939;-61
2023/01/24 07:23:31;;;;;;;;;;;;;;;1.05;100.00;102052.59;5060324;28;19964;-61
2023/01/24 07:25:56;;;;;;;;;;;;;;;1.03;100.00;102054.25;5052843;28;19963;-61
2023/01/24 07:28:21;;;;;;;;;;;;;;;1.05;100.00;102057.66;5052935;28;20330;-61
2023/01/24 07:30:47;;;;;;;;;;;;;;;1.04;100.00;102061.03;5048921;28;20457;-61
2023/01/24 07:33:13;;;;;;;;;;;;;;;1.19;100.00;102063.84;5050699;28;19924;-64
2023/01/24 07:35:39;;;;;;;;;;;;;;;1.26;100.00;102060.53;5053249;28;19921;-61
2023/01/24 07:38:05;;;;;;;;;;;;;;;1.20;100.00;102065.50;5052483;28;19918;-61
2023/01/24 07:40:30;;;;;;;;;;;;;;;1.14;100.00;102060.34;5042635;28;19921;-61
2023/01/24 07:42:55;;;;;;;;;;;;;;;1.15;100.00;102056.97;5046656;28;19924;-61
2023/01/24 07:45:20;;;;;;;;;;;;;;;1.10;100.00;102067.06;5053119;28;19921;-61
2023/01/24 07:47:46;;;;;;;;;;;;;;;1.11;100.00;102068.75;5052446;28;19928;-61
2023/01/24 07:50:11;;;;;;;;;;;;;;;1.12;100.00;102078.06;5039266;28;19924;-61
2023/01/24 07:52:36;;;;;;;;;;;;;;;1.18;100.00;102074.78;5052707;28;20023;-60
2023/01/24 07:55:01;;;;;;;;;;;;;;;1.21;100.00;102082.44;5052750;28;20004;-61
2023/01/24 07:57:27;;;;;;;;;;;;;;;1.22;100.00;102080.78;5051866;28;19963;-61
2023/01/24 07:59:52;;;;;;;;;;;;;;;1.17;100.00;102080.69;5052931;28;19948;-61
2023/01/24 08:02:17;;;;;;;;;;;;;;;1.26;100.00;102088.44;5012077;28;19921;-61
2023/01/24 08:04:42;;;;;;;;;;;;;;;1.32;100.00;102090.22;5032747;28;20366;-61
2023/01/24 08:07:16;;;;;;;;;;;;;;;1.24;100.00;102091.78;5029272;28;20004;-61
2023/01/24 08:09:42;;;;;;;;;;;;;;;1.24;100.00;102082.50;5012199;28;19917;-61
2023/01/24 08:12:07;;;;;;;;;;;;;;;1.27;100.00;102079.16;5035674;28;20456;-60
2023/01/24 08:14:32;;;;;;;;;;;;;;;1.24;100.00;102082.50;5052757;28;19917;-60
2023/01/24 08:16:57;;;;;;;;;;;;;;;1.27;100.00;102087.59;5055893;28;20375;-60
2023/01/24 08:19:23;;;;;;;;;;;;;;;1.27;100.00;102090.13;5052995;28;19917;-60
2023/01/24 08:21:48;;;;;;;;;;;;;;;1.25;100.00;102086.75;5055250;28;19975;-60
2023/01/24 08:24:13;;;;;;;;;;;;;;;1.21;100.00;102082.44;5047291;28;19985;-60
2023/01/24 08:26:38;;;;;;;;;;;;;;;1.24;100.00;102090.09;5045381;28;20425;-61
2023/01/24 08:29:03;;;;;;;;;;;;;;;1.28;100.00;102089.31;5048785;28;19920;-60
2023/01/24 08:31:28;;;;;;;;;;;;;;;1.33;100.00;102081.78;5049447;28;19932;-61
2023/01/24 08:33:53;;;;;;;;;;;;;;;1.35;100.00;102085.19;5038935;28;20340;-61
2023/01/24 08:36:20;;;;;;;;;;;;;;;1.37;100.00;102085.22;5047528;28;19925;-60
2023/01/24 08:38:45;;;;;;;;;;;;;;;1.38;100.00;102087.78;5047108;28;20446;-61
2023/01/24 08:41:10;;;;;;;;;;;;;;;1.33;100.00;102091.06;5032810;28;19925;-61
2023/01/24 08:43:35;;;;;;;;;;;;;;;1.59;100.00;102096.56;5049698;28;19923;-61
2023/01/24 08:46:01;;;;;;;;;;;;;;;1.69;100.00;102090.78;5050968;28;20006;-61
2023/01/24 08:48:27;;;;;;;;;;;;;;;1.63;100.00;102093.22;5051745;28;20000;-61
2023/01/24 08:50:52;;;;;;;;;;;;;;;1.51;100.00;102091.34;5045347;28;19920;-61
2023/01/24 08:53:17;;;;;;;;;;;;;;;1.59;100.00;102099.09;5058674;28;19916;-61
2023/01/24 08:55:43;;;;;;;;;;;;;;;1.55;100.00;102094.78;5049261;28;20395;-61
2023/01/24 08:58:08;;;;;;;;;;;;;;;1.44;100.00;102099.72;5031378;28;19917;-61
2023/01/24 09:00:33;;;;;;;;;;;;;;;1.48;100.00;102100.59;5039154;28;20328;-60
2023/01/24 09:03:00;;;;;;;;;;;;;;;1.47;100.00;102107.34;5063055;28;20303;-61
2023/01/24 09:05:26;;;;;;;;;;;;;;;1.46;100.00;102108.19;5051998;28;19940;-62
2023/01/24 09:07:51;;;;;;;;;;;;;;;1.48;100.00;102108.19;5051048;28;19916;-61
2023/01/24 09:10:16;;;;;;;;;;;;;;;1.52;100.00;102105.75;5042730;28;19917;-61
2023/01/24 09:12:42;;;;;;;;;;;;;;;1.46;100.00;102105.66;5059129;28;19943;-60
2023/01/24 09:15:07;;;;;;;;;;;;;;;1.48;100.00;102111.59;5051400;28;20371;-61
2023/01/24 09:17:32;;;;;;;;;;;;;;;1.42;100.00;102114.03;5051111;28;19921;-60
2023/01/24 09:19:58;;;;;;;;;;;;;;;1.41;100.00;102112.34;5051343;28;20368;-61
2023/01/24 09:22:23;;;;;;;;;;;;;;;1.36;100.00;102113.94;5044835;28;19947;-60
2023/01/24 09:24:48;;;;;;;;;;;;;;;1.44;100.00;102113.25;5070790;28;19939;-60
2023/01/24 09:27:13;;;;;;;;;;;;;;;1.55;100.00;102117.63;5055191;28;19978;-61
2023/01/24 09:29:38;;;;;;;;;;;;;;;1.47;100.00;102117.50;5055360;28;20343;-61
2023/01/24 09:32:04;;;;;;;;;;;;;;;1.50;100.00;102117.56;5052581;28;20446;-60
2023/01/24 09:34:29;;;;;;;;;;;;;;;1.51;100.00;102129.38;5055210;28;19921;-61
2023/01/24 09:36:54;;;;;;;;;;;;;;;1.45;100.00;102117.50;5054975;28;19917;-61
2023/01/24 09:39:19;;;;;;;;;;;;;;;1.51;100.00;102116.72;5049005;28;19947;-60
2023/01/24 09:41:50;;;;;;;;;;;;;;;1.50;100.00;102126.84;5040398;28;20277;-60
2023/01/24 09:44:30;;;;;;;;;;;;;;;1.46;100.00;102115.78;5054943;28;19921;-60
2023/01/24 09:46:57;;;;;;;;;;;;;;;1.48;100.00;102123.41;5054964;28;19917;-59
2023/01/24 09:49:31;;;;;;;;;;;;;;;1.54;100.00;102129.47;5070197;28;19972;-61
2023/01/24 09:51:57;;;;;;;;;;;;;;;1.50;100.00;102127.72;5045743;28;19940;-60
2023/01/24 09:54:34;;;;;;;;;;;;;;;1.46;100.00;102133.53;5055245;28;19939;-60
2023/01/24 09:56:59;;;;;;;;;;;;;;;1.48;100.00;102131.91;5054293;28;19925;-60
2023/01/24 09:59:35;;;;;;;;;;;;;;;1.51;100.00;102128.56;5055149;28;19923;-60
2023/01/24 10:02:01;;;;;;;;;;;;;;;1.47;100.00;102132.72;5060198;28;19921;-60
2023/01/24 10:04:35;;;;;;;;;;;;;;;1.52;100.00;102131.09;5054007;28;19928;-60
2023/01/24 10:07:06;;;;;;;;;;;;;;;1.54;100.00;102136.19;5069596;28;20268;-61
2023/01/24 10:09:56;;;;;;;;;;;;;;;1.55;100.00;102135.38;5055240;28;20277;-61
2023/01/24 10:12:25;;;;;;;;;;;;;;;1.56;100.00;102137.94;5056906;28;19924;-61
2023/01/24 10:15:08;;;;;;;;;;;;;;;1.54;100.00;102138.72;5046551;28;19927;-61
2023/01/24 10:17:54;;;;;;;;;;;;;;;1.54;100.00;102141.28;5041973;28;20011;-60
2023/01/24 10:20:30;;;;;;;;;;;;;;;1.47;100.00;102144.56;5044471;28;19925;-61
2023/01/24 10:23:01;;;;;;;;;;;;;;;1.50;100.00;102139.53;5065286;28;19924;-61
2023/01/24 10:25:44;;;;;;;;;;;;;;;1.52;100.00;102140.41;5054388;28;19942;-61
2023/01/24 10:28:16;;;;;;;;;;;;;;;1.57;100.00;102138.78;5050625;28;20396;-61
2023/01/24 10:31:02;;;;;;;;;;;;;;;1.61;100.00;102143.94;5049512;28;19932;-62
2023/01/24 10:33:30;;;;;;;;;;;;;;;1.66;100.00;102146.53;5045167;28;19921;-63
2023/01/24 10:35:56;;;;;;;;;;;;;;;1.64;100.00;102148.22;5048325;28;19927;-61
2023/01/24 10:38:21;;;;;;;;;;;;;;;1.71;100.00;102146.59;5054593;28;19916;-62
2023/01/24 10:40:50;;;;;;;;;;;;;;;1.63;100.00;102143.97;5043272;28;20360;-62
2023/01/24 10:43:16;;;;;;;;;;;;;;;1.61;100.00;102141.41;5050714;28;20338;-61
2023/01/24 10:45:41;;;;;;;;;;;;;;;1.53;100.00;102145.50;5050296;28;19924;-61
2023/01/24 10:48:16;;;;;;;;;;;;;;;1.65;100.00;102131.28;5053277;28;20025;-61
2023/01/24 10:50:43;;;;;;;;;;;;;;;1.64;100.00;102150.75;5041568;28;19921;-61
2023/01/24 10:53:21;;;;;;;;;;;;;;;1.58;100.00;102140.50;5053165;28;20292;-62
2023/01/24 10:55:47;;;;;;;;;;;;;;;1.67;100.00;102139.78;5052515;28;19923;-62
2023/01/24 10:58:34;;;;;;;;;;;;;;;1.69;100.00;102138.16;5053203;28;19996;-59
2023/01/24 11:01:04;;;;;;;;;;;;;;;1.60;100.00;102143.91;5050730;28;19946;-62
2023/01/24 11:03:32;;;;;;;;;;;;;;;1.59;100.00;102140.53;5039833;28;20043;-63
2023/01/24 11:05:57;;;;;;;;;;;;;;;1.65;100.00;102129.63;5047467;28;20368;-61
2023/01/24 11:08:32;;;;;;;;;;;;;;;1.75;100.00;102128.09;5051850;28;19931;-61
2023/01/24 11:11:00;;;;;;;;;;;;;;;1.65;100.00;102131.28;5044331;28;19920;-61
2023/01/24 11:13:38;;;;;;;;;;;;;;;1.64;100.00;102125.38;5050566;28;19920;-60
2023/01/24 11:16:06;;;;;;;;;;;;;;;1.59;100.00;102125.31;5063761;28;20445;-60
2023/01/24 11:18:33;;;;;;;;;;;;;;;1.64;100.00;102133.00;5053646;28;20000;-60
2023/01/24 11:21:04;;;;;;;;;;;;;;;1.65;100.00;102133.84;5041720;28;19991;-63
2023/01/24 11:23:30;;;;;;;;;;;;;;;1.58;100.00;102128.66;5050372;28;20380;-61
2023/01/24 11:26:01;;;;;;;;;;;;;;;1.56;100.00;102126.94;5041764;28;19917;-60
2023/01/24 11:28:28;;;;;;;;;;;;;;;1.57;100.00;102128.66;5051810;28;19917;-60
2023/01/24 11:30:55;;;;;;;;;;;;;;;1.66;100.00;102123.69;5047812;28;19925;-60
2023/01/24 11:33:34;;;;;;;;;;;;;;;1.74;100.00;102127.22;5042960;28;19928;-61
2023/01/24 11:36:02;;;;;;;;;;;;;;;1.73;100.00;102125.50;5048052;28;20411;-61
2023/01/24 11:38:31;;;;;;;;;;;;;;;1.72;100.00;102116.19;5051051;28;20273;-61
2023/01/24 11:41:21;;;;;;;;;;;;;;;1.66;100.00;102123.69;5034625;28;19987;-61
2023/01/24 11:44:02;;;;;;;;;;;;;;;1.59;100.00;102116.84;5035275;28;19920;-61
2023/01/24 11:46:33;;;;;;;;;;;;;;;1.54;100.00;102116.78;5052129;28;19951;-61
2023/01/24 11:49:17;;;;;;;;;;;;;;;1.51;100.00;102101.50;5052753;28;19960;-60
2023/01/24 11:52:01;;;;;;;;;;;;;;;1.60;100.00;102086.44;5040490;28;19931;-61
2023/01/24 11:54:26;;;;;;;;;;;;;;;1.65;100.00;102085.63;5052477;28;19916;-62
2023/01/24 11:57:02;;;;;;;;;;;;;;;1.68;100.00;102080.63;5042094;28;19924;-61
2023/01/24 11:59:34;;;;;;;;;;;;;;;1.74;100.00;102080.69;5052762;28;20331;-61
2023/01/24 12:02:18;;;;;;;;;;;;;;;1.64;100.00;102077.19;5034531;28;19929;-62
2023/01/24 12:04:51;;;;;;;;;;;;;;;1.71;100.00;102078.97;5052683;28;19943;-60
2023/01/24 12:07:17;;;;;;;;;;;;;;;1.58;100.00;102074.56;5049060;28;19928;-61
2023/01/24 12:09:42;;;;;;;;;;;;;;;1.64;100.00;102073.78;5042107;28;19916;-61
2023/01/24 12:12:10;;;;;;;;;;;;;;;1.60;100.00;102071.19;5056265;28;20408;-61
2023/01/24 12:14:58;;;;;;;;;;;;;;;1.69;100.00;102060.34;5052464;28;19974;-61
2023/01/24 12:17:42;;;;;;;;;;;;;;;1.79;100.00;102066.38;5043565;28;19925;-61
2023/01/24 12:20:17;;;;;;;;;;;;;;;1.72;100.00;102062.91;5037800;28;19917;-61
2023/01/24 12:22:43;;;;;;;;;;;;;;;1.72;100.00;102059.53;5050746;28;19921;-60
2023/01/24 12:25:30;;;;;;;;;;;;;;;1.77;100.00;102063.84;5045224;28;20399;-61
2023/01/24 12:27:59;;;;;;;;;;;;;;;1.86;100.00;102068.19;5051735;28;19921;-62
2023/01/24 12:30:32;;;;;;;;;;;;;;;1.80;100.00;102063.03;5044865;28;19932;-61
2023/01/24 12:33:13;;;;;;;;;;;;;;;1.80;100.00;102060.47;5040086;28;19917;-61
2023/01/24 12:35:46;;;;;;;;;;;;;;;1.76;100.00;102062.13;5052029;28;19932;-61
2023/01/24 12:38:11;;;;;;;;;;;;;;;1.73;100.00;102063.75;5046689;28;19920;-60
2023/01/24 12:40:52;;;;;;;;;;;;;;;1.74;100.00;102058.69;5032330;28;19998;-61
2023/01/24 12:43:20;;;;;;;;;;;;;;;1.81;100.00;102059.66;5053294;28;19917;-60
2023/01/24 12:45:55;;;;;;;;;;;;;;;1.69;100.00;102062.88;5051972;28;19921;-65
2023/01/24 12:48:33;;;;;;;;;;;;;;;1.66;100.00;102059.44;5045932;28;19924;-60
2023/01/24 12:50:58;;;;;;;;;;;;;;;1.64;100.00;102061.09;5046409;28;19967;-61
2023/01/24 12:53:27;;;;;;;;;;;;;;;1.72;100.00;102044.28;5056020;28;19943;-61
2023/01/24 12:56:11;;;;;;;;;;;;;;;1.69;100.00;102052.72;5050910;28;19924;-60
2023/01/24 12:58:39;;;;;;;;;;;;;;;1.75;100.00;102050.25;5052173;28;20007;-61
2023/01/24 13:01:07;;;;;;;;;;;;;;;1.80;100.00;102052.00;5049455;28;20009;-61
2023/01/24 13:03:55;;;;;;;;;;;;;;;1.83;100.00;102049.53;5058695;28;19921;-60
2023/01/24 13:06:36;;;;;;;;;;;;;;;1.88;100.00;102055.50;5031393;28;19924;-62
2023/01/24 13:09:18;;;;;;;;;;;;;;;1.80;100.00;102046.94;5051508;28;19927;-61
2023/01/24 13:11:48;;;;;;;;;;;;;;;1.91;100.00;102047.91;5054227;28;19928;-61
2023/01/24 13:14:22;;;;;;;;;;;;;;;2.01;100.00;102048.88;5052799;28;19921;-61
2023/01/24 13:17:05;;;;;;;;;;;;;;;1.92;100.00;102047.97;5050114;28;19917;-61